sensor_id;sensor_type;location;lat;lon;timestamp;temperature;humidity
35593;DHT22;64447;52.140;5.602;2023-04-03T00:05:20;4.30;93.00
35593;DHT22;64447;52.140;5.602;2023-04-03T00:07:46;4.20;93.50
35593;DHT22;64447;52.140;5.602;2023-04-03T00:10:11;4.20;93.40
35593;DHT22;64447;52.140;5.602;2023-04-03T00:12:37;4.10;93.80
35593;DHT22;64447;52.140;5.602;2023-04-03T00:15:03;4.10;93.70
35593;DHT22;64447;52.140;5.602;2023-04-03T00:17:29;4.00;94.00
35593;DHT22;64447;52.140;5.602;2023-04-03T00:19:55;4.00;94.10
35593;DHT22;64447;52.140;5.602;2023-04-03T00:22:20;4.30;94.10
35593;DHT22;64447;52.140;5.602;2023-04-03T00:24:46;4.00;94.20
35593;DHT22;64447;52.140;5.602;2023-04-03T00:27:11;4.00;94.30
35593;DHT22;64447;52.140;5.602;2023-04-03T00:29:37;4.10;94.20
35593;DHT22;64447;52.140;5.602;2023-04-03T00:35:24;4.00;94.20
35593;DHT22;64447;52.140;5.602;2023-04-03T00:37:51;4.00;94.40
35593;DHT22;64447;52.140;5.602;2023-04-03T00:40:17;4.10;94.30
35593;DHT22;64447;52.140;5.602;2023-04-03T00:42:44;4.20;94.00
35593;DHT22;64447;52.140;5.602;2023-04-03T00:47:37;4.00;94.30
35593;DHT22;64447;52.140;5.602;2023-04-03T00:50:04;4.10;94.60
35593;DHT22;64447;52.140;5.602;2023-04-03T00:52:30;4.20;94.40
35593;DHT22;64447;52.140;5.602;2023-04-03T00:55:03;4.20;94.40
35593;DHT22;64447;52.140;5.602;2023-04-03T00:57:30;4.10;94.40
35593;DHT22;64447;52.140;5.602;2023-04-03T01:00:06;4.00;94.60
35593;DHT22;64447;52.140;5.602;2023-04-03T01:05:54;4.00;94.70
35593;DHT22;64447;52.140;5.602;2023-04-03T01:08:20;4.00;95.00
35593;DHT22;64447;52.140;5.602;2023-04-03T01:10:45;4.00;94.70
35593;DHT22;64447;52.140;5.602;2023-04-03T01:13:29;3.90;95.20
35593;DHT22;64447;52.140;5.602;2023-04-03T01:15:55;3.90;95.40
35593;DHT22;64447;52.140;5.602;2023-04-03T01:18:22;3.80;95.60
35593;DHT22;64447;52.140;5.602;2023-04-03T01:26:25;3.80;95.70
35593;DHT22;64447;52.140;5.602;2023-04-03T01:28:53;3.60;96.20
35593;DHT22;64447;52.140;5.602;2023-04-03T01:31:43;3.60;96.50
35593;DHT22;64447;52.140;5.602;2023-04-03T01:34:05;3.50;96.40
35593;DHT22;64447;52.140;5.602;2023-04-03T01:36:31;3.60;97.00
35593;DHT22;64447;52.140;5.602;2023-04-03T01:38:57;3.70;96.40
35593;DHT22;64447;52.140;5.602;2023-04-03T01:41:25;3.80;96.50
35593;DHT22;64447;52.140;5.602;2023-04-03T01:43:51;3.60;96.50
35593;DHT22;64447;52.140;5.602;2023-04-03T01:46:17;3.90;96.10
35593;DHT22;64447;52.140;5.602;2023-04-03T01:48:43;4.00;96.10
35593;DHT22;64447;52.140;5.602;2023-04-03T01:51:09;3.80;96.20
35593;DHT22;64447;52.140;5.602;2023-04-03T01:53:34;3.60;96.70
35593;DHT22;64447;52.140;5.602;2023-04-03T01:56:00;3.70;96.60
35593;DHT22;64447;52.140;5.602;2023-04-03T01:58:25;3.60;96.90
35593;DHT22;64447;52.140;5.602;2023-04-03T02:00:52;3.30;97.40
35593;DHT22;64447;52.140;5.602;2023-04-03T02:03:18;3.50;97.60
35593;DHT22;64447;52.140;5.602;2023-04-03T02:05:44;3.60;97.20
35593;DHT22;64447;52.140;5.602;2023-04-03T02:08:10;3.60;97.20
35593;DHT22;64447;52.140;5.602;2023-04-03T02:10:36;3.40;97.60
35593;DHT22;64447;52.140;5.602;2023-04-03T02:13:01;3.40;97.90
35593;DHT22;64447;52.140;5.602;2023-04-03T02:15:27;3.40;98.30
35593;DHT22;64447;52.140;5.602;2023-04-03T02:21:15;3.40;98.10
35593;DHT22;64447;52.140;5.602;2023-04-03T02:23:40;3.30;98.20
35593;DHT22;64447;52.140;5.602;2023-04-03T02:26:11;3.30;98.60
35593;DHT22;64447;52.140;5.602;2023-04-03T02:28:37;3.20;98.80
35593;DHT22;64447;52.140;5.602;2023-04-03T02:31:04;3.40;98.90
35593;DHT22;64447;52.140;5.602;2023-04-03T02:33:32;3.60;98.50
35593;DHT22;64447;52.140;5.602;2023-04-03T02:35:58;3.50;98.10
35593;DHT22;64447;52.140;5.602;2023-04-03T02:38:24;3.50;98.30
35593;DHT22;64447;52.140;5.602;2023-04-03T02:40:50;3.30;98.90
35593;DHT22;64447;52.140;5.602;2023-04-03T02:43:16;3.30;99.50
35593;DHT22;64447;52.140;5.602;2023-04-03T02:45:42;3.30;99.40
35593;DHT22;64447;52.140;5.602;2023-04-03T02:48:07;3.40;99.20
35593;DHT22;64447;52.140;5.602;2023-04-03T02:50:33;3.60;98.80
35593;DHT22;64447;52.140;5.602;2023-04-03T02:52:59;3.50;98.70
35593;DHT22;64447;52.140;5.602;2023-04-03T02:55:24;3.40;98.40
35593;DHT22;64447;52.140;5.602;2023-04-03T02:57:50;3.50;98.70
35593;DHT22;64447;52.140;5.602;2023-04-03T03:00:16;3.50;98.70
35593;DHT22;64447;52.140;5.602;2023-04-03T03:06:09;3.50;98.90
35593;DHT22;64447;52.140;5.602;2023-04-03T03:08:35;3.40;99.00
35593;DHT22;64447;52.140;5.602;2023-04-03T03:11:02;3.20;99.40
35593;DHT22;64447;52.140;5.602;2023-04-03T03:13:28;3.00;99.90
35593;DHT22;64447;52.140;5.602;2023-04-03T03:15:53;3.00;99.90
35593;DHT22;64447;52.140;5.602;2023-04-03T03:18:19;3.00;99.90
35593;DHT22;64447;52.140;5.602;2023-04-03T03:20:45;2.90;99.90
35593;DHT22;64447;52.140;5.602;2023-04-03T03:23:10;2.90;99.90
35593;DHT22;64447;52.140;5.602;2023-04-03T03:25:40;2.80;99.90
35593;DHT22;64447;52.140;5.602;2023-04-03T03:28:06;2.80;99.90
35593;DHT22;64447;52.140;5.602;2023-04-03T03:30:32;2.90;99.90
35593;DHT22;64447;52.140;5.602;2023-04-03T03:36:20;3.10;99.90
35593;DHT22;64447;52.140;5.602;2023-04-03T03:38:45;2.80;99.90
35593;DHT22;64447;52.140;5.602;2023-04-03T03:41:11;2.90;99.90
35593;DHT22;64447;52.140;5.602;2023-04-03T03:43:36;2.90;99.90
35593;DHT22;64447;52.140;5.602;2023-04-03T03:46:02;3.60;99.90
35593;DHT22;64447;52.140;5.602;2023-04-03T03:48:28;3.10;99.90
35593;DHT22;64447;52.140;5.602;2023-04-03T03:50:53;3.20;99.90
35593;DHT22;64447;52.140;5.602;2023-04-03T03:53:19;3.20;99.90
35593;DHT22;64447;52.140;5.602;2023-04-03T03:55:44;3.20;99.90
35593;DHT22;64447;52.140;5.602;2023-04-03T03:58:10;3.30;99.90
35593;DHT22;64447;52.140;5.602;2023-04-03T04:00:36;3.50;99.70
35593;DHT22;64447;52.140;5.602;2023-04-03T04:06:23;3.60;99.20
35593;DHT22;64447;52.140;5.602;2023-04-03T04:08:49;3.70;98.50
35593;DHT22;64447;52.140;5.602;2023-04-03T04:11:15;3.80;98.80
35593;DHT22;64447;52.140;5.602;2023-04-03T04:13:40;3.70;98.70
35593;DHT22;64447;52.140;5.602;2023-04-03T04:16:07;3.60;98.50
35593;DHT22;64447;52.140;5.602;2023-04-03T04:18:32;3.50;98.90
35593;DHT22;64447;52.140;5.602;2023-04-03T04:20:58;3.40;99.10
35593;DHT22;64447;52.140;5.602;2023-04-03T04:23:24;2.20;99.30
35593;DHT22;64447;52.140;5.602;2023-04-03T04:25:49;3.00;99.90
35593;DHT22;64447;52.140;5.602;2023-04-03T04:28:16;3.30;99.90
35593;DHT22;64447;52.140;5.602;2023-04-03T04:30:42;2.80;99.90
35593;DHT22;64447;52.140;5.602;2023-04-03T04:36:29;2.50;99.90
35593;DHT22;64447;52.140;5.602;2023-04-03T04:38:55;2.50;99.90
35593;DHT22;64447;52.140;5.602;2023-04-03T04:41:21;2.60;99.90
35593;DHT22;64447;52.140;5.602;2023-04-03T04:43:50;2.60;99.90
35593;DHT22;64447;52.140;5.602;2023-04-03T04:46:16;2.70;99.90
35593;DHT22;64447;52.140;5.602;2023-04-03T04:48:42;2.50;99.90
35593;DHT22;64447;52.140;5.602;2023-04-03T04:51:08;2.40;99.90
35593;DHT22;64447;52.140;5.602;2023-04-03T04:53:34;2.20;99.90
35593;DHT22;64447;52.140;5.602;2023-04-03T04:56:00;2.20;99.90
35593;DHT22;64447;52.140;5.602;2023-04-03T04:58:25;2.30;99.90
35593;DHT22;64447;52.140;5.602;2023-04-03T05:00:59;2.20;99.90
35593;DHT22;64447;52.140;5.602;2023-04-03T05:06:47;2.40;99.90
35593;DHT22;64447;52.140;5.602;2023-04-03T05:09:13;2.50;99.90
35593;DHT22;64447;52.140;5.602;2023-04-03T05:11:38;2.40;99.90
35593;DHT22;64447;52.140;5.602;2023-04-03T05:14:04;2.40;99.90
35593;DHT22;64447;52.140;5.602;2023-04-03T05:16:32;2.40;99.90
35593;DHT22;64447;52.140;5.602;2023-04-03T05:18:58;2.40;99.90
35593;DHT22;64447;52.140;5.602;2023-04-03T05:21:23;2.40;99.90
35593;DHT22;64447;52.140;5.602;2023-04-03T05:23:52;2.40;99.90
35593;DHT22;64447;52.140;5.602;2023-04-03T05:26:18;2.40;99.90
35593;DHT22;64447;52.140;5.602;2023-04-03T05:28:43;2.40;99.90
35593;DHT22;64447;52.140;5.602;2023-04-03T05:31:09;2.30;99.90
35593;DHT22;64447;52.140;5.602;2023-04-03T05:36:56;2.20;99.90
35593;DHT22;64447;52.140;5.602;2023-04-03T05:39:22;2.20;99.90
35593;DHT22;64447;52.140;5.602;2023-04-03T05:41:48;2.30;99.90
35593;DHT22;64447;52.140;5.602;2023-04-03T05:44:14;2.10;99.90
35593;DHT22;64447;52.140;5.602;2023-04-03T05:46:40;2.00;99.90
35593;DHT22;64447;52.140;5.602;2023-04-03T05:49:05;2.10;99.90
35593;DHT22;64447;52.140;5.602;2023-04-03T05:51:34;2.30;99.90
35593;DHT22;64447;52.140;5.602;2023-04-03T05:54:14;2.90;99.90
35593;DHT22;64447;52.140;5.602;2023-04-03T05:56:41;2.20;99.90
35593;DHT22;64447;52.140;5.602;2023-04-03T05:59:06;2.20;99.90
35593;DHT22;64447;52.140;5.602;2023-04-03T06:01:33;2.20;99.90
35593;DHT22;64447;52.140;5.602;2023-04-03T06:03:59;2.20;99.90
35593;DHT22;64447;52.140;5.602;2023-04-03T06:06:25;2.30;99.90
35593;DHT22;64447;52.140;5.602;2023-04-03T06:08:50;2.40;99.90
35593;DHT22;64447;52.140;5.602;2023-04-03T06:11:16;2.30;99.90
35593;DHT22;64447;52.140;5.602;2023-04-03T06:13:42;2.30;99.90
35593;DHT22;64447;52.140;5.602;2023-04-03T06:16:12;2.30;99.90
35593;DHT22;64447;52.140;5.602;2023-04-03T06:22:02;2.30;99.90
35593;DHT22;64447;52.140;5.602;2023-04-03T06:24:28;3.10;99.90
35593;DHT22;64447;52.140;5.602;2023-04-03T06:26:54;2.30;99.90
35593;DHT22;64447;52.140;5.602;2023-04-03T06:29:20;2.70;99.90
35593;DHT22;64447;52.140;5.602;2023-04-03T06:31:47;2.40;99.90
35593;DHT22;64447;52.140;5.602;2023-04-03T06:34:13;2.60;99.90
35593;DHT22;64447;52.140;5.602;2023-04-03T06:36:39;2.60;99.90
35593;DHT22;64447;52.140;5.602;2023-04-03T06:39:05;2.70;99.90
35593;DHT22;64447;52.140;5.602;2023-04-03T06:41:31;2.90;99.90
35593;DHT22;64447;52.140;5.602;2023-04-03T06:43:57;3.00;99.90
35593;DHT22;64447;52.140;5.602;2023-04-03T06:46:24;3.00;99.90
35593;DHT22;64447;52.140;5.602;2023-04-03T06:52:12;3.10;99.90
35593;DHT22;64447;52.140;5.602;2023-04-03T06:54:39;3.00;99.90
35593;DHT22;64447;52.140;5.602;2023-04-03T06:57:05;3.10;99.90
35593;DHT22;64447;52.140;5.602;2023-04-03T06:59:30;3.20;99.90
35593;DHT22;64447;52.140;5.602;2023-04-03T07:01:56;4.00;99.90
35593;DHT22;64447;52.140;5.602;2023-04-03T07:04:23;3.30;99.90
35593;DHT22;64447;52.140;5.602;2023-04-03T07:06:50;3.30;99.90
35593;DHT22;64447;52.140;5.602;2023-04-03T07:09:16;3.40;99.90
35593;DHT22;64447;52.140;5.602;2023-04-03T07:11:41;3.40;99.90
35593;DHT22;64447;52.140;5.602;2023-04-03T07:14:07;3.40;99.90
35593;DHT22;64447;52.140;5.602;2023-04-03T07:16:34;3.60;99.90
35593;DHT22;64447;52.140;5.602;2023-04-03T07:22:21;3.80;99.40
35593;DHT22;64447;52.140;5.602;2023-04-03T07:24:47;3.90;99.70
35593;DHT22;64447;52.140;5.602;2023-04-03T07:27:13;3.80;98.40
35593;DHT22;64447;52.140;5.602;2023-04-03T07:29:38;3.90;98.10
35593;DHT22;64447;52.140;5.602;2023-04-03T07:32:04;3.90;98.70
35593;DHT22;64447;52.140;5.602;2023-04-03T07:34:31;4.10;98.80
35593;DHT22;64447;52.140;5.602;2023-04-03T07:36:58;4.20;98.30
35593;DHT22;64447;52.140;5.602;2023-04-03T07:39:23;4.30;97.50
35593;DHT22;64447;52.140;5.602;2023-04-03T07:41:49;4.30;96.70
35593;DHT22;64447;52.140;5.602;2023-04-03T07:44:15;4.40;96.40
35593;DHT22;64447;52.140;5.602;2023-04-03T07:46:40;4.40;95.90
35593;DHT22;64447;52.140;5.602;2023-04-03T07:52:29;4.60;94.10
35593;DHT22;64447;52.140;5.602;2023-04-03T07:54:55;4.70;92.30
35593;DHT22;64447;52.140;5.602;2023-04-03T07:57:20;4.80;93.00
35593;DHT22;64447;52.140;5.602;2023-04-03T07:59:46;4.70;91.90
35593;DHT22;64447;52.140;5.602;2023-04-03T08:02:12;4.70;92.30
35593;DHT22;64447;52.140;5.602;2023-04-03T08:04:38;4.80;92.20
35593;DHT22;64447;52.140;5.602;2023-04-03T08:07:04;4.70;92.10
35593;DHT22;64447;52.140;5.602;2023-04-03T08:09:30;4.80;92.30
35593;DHT22;64447;52.140;5.602;2023-04-03T08:11:57;5.00;91.70
35593;DHT22;64447;52.140;5.602;2023-04-03T08:14:22;5.20;90.50
35593;DHT22;64447;52.140;5.602;2023-04-03T08:16:51;5.60;90.50
35593;DHT22;64447;52.140;5.602;2023-04-03T08:22:39;5.50;89.90
35593;DHT22;64447;52.140;5.602;2023-04-03T08:25:05;5.50;88.10
35593;DHT22;64447;52.140;5.602;2023-04-03T08:27:31;5.50;86.90
35593;DHT22;64447;52.140;5.602;2023-04-03T08:29:56;5.50;85.80
35593;DHT22;64447;52.140;5.602;2023-04-03T08:32:22;5.60;81.60
35593;DHT22;64447;52.140;5.602;2023-04-03T08:34:48;5.60;79.10
35593;DHT22;64447;52.140;5.602;2023-04-03T08:37:14;5.70;75.80
35593;DHT22;64447;52.140;5.602;2023-04-03T08:39:42;5.70;70.40
35593;DHT22;64447;52.140;5.602;2023-04-03T13:59:30;9.30;47.50
35593;DHT22;64447;52.140;5.602;2023-04-03T14:04:30;9.40;46.70
35593;DHT22;64447;52.140;5.602;2023-04-03T14:06:57;9.40;47.60
35593;DHT22;64447;52.140;5.602;2023-04-03T14:09:25;10.00;47.60
35593;DHT22;64447;52.140;5.602;2023-04-03T14:11:57;9.30;45.70
35593;DHT22;64447;52.140;5.602;2023-04-03T14:14:27;9.30;45.20
35593;DHT22;64447;52.140;5.602;2023-04-03T14:16:58;9.20;46.30
35593;DHT22;64447;52.140;5.602;2023-04-03T14:19:27;9.30;47.00
35593;DHT22;64447;52.140;5.602;2023-04-03T14:21:55;9.30;47.40
35593;DHT22;64447;52.140;5.602;2023-04-03T14:24:22;9.20;47.80
35593;DHT22;64447;52.140;5.602;2023-04-03T14:26:50;9.30;48.40
35593;DHT22;64447;52.140;5.602;2023-04-03T14:29:17;9.50;50.00
35593;DHT22;64447;52.140;5.602;2023-04-03T14:31:44;9.40;49.30
35593;DHT22;64447;52.140;5.602;2023-04-03T14:34:12;9.80;49.00
35593;DHT22;64447;52.140;5.602;2023-04-03T14:36:38;9.50;49.10
35593;DHT22;64447;52.140;5.602;2023-04-03T14:39:06;9.40;48.20
35593;DHT22;64447;52.140;5.602;2023-04-03T14:41:32;9.30;49.80
35593;DHT22;64447;52.140;5.602;2023-04-03T14:43:58;9.40;56.30
35593;DHT22;64447;52.140;5.602;2023-04-03T14:46:31;9.20;48.50
35593;DHT22;64447;52.140;5.602;2023-04-03T14:48:57;9.20;47.50
35593;DHT22;64447;52.140;5.602;2023-04-03T14:51:23;9.20;47.10
35593;DHT22;64447;52.140;5.602;2023-04-03T14:53:49;9.30;48.90
35593;DHT22;64447;52.140;5.602;2023-04-03T14:56:25;9.30;48.90
35593;DHT22;64447;52.140;5.602;2023-04-03T14:58:55;9.20;47.90
35593;DHT22;64447;52.140;5.602;2023-04-03T15:01:21;9.30;50.50
35593;DHT22;64447;52.140;5.602;2023-04-03T15:03:47;9.30;48.80
35593;DHT22;64447;52.140;5.602;2023-04-03T15:06:14;9.20;49.90
35593;DHT22;64447;52.140;5.602;2023-04-03T15:08:40;9.10;48.30
35593;DHT22;64447;52.140;5.602;2023-04-03T15:11:07;9.10;47.90
35593;DHT22;64447;52.140;5.602;2023-04-03T15:13:33;9.30;47.80
35593;DHT22;64447;52.140;5.602;2023-04-03T15:15:58;9.10;48.00
35593;DHT22;64447;52.140;5.602;2023-04-03T15:18:26;9.10;49.30
35593;DHT22;64447;52.140;5.602;2023-04-03T15:24:13;9.00;48.60
35593;DHT22;64447;52.140;5.602;2023-04-03T15:26:39;9.00;49.50
35593;DHT22;64447;52.140;5.602;2023-04-03T15:29:05;9.00;49.70
35593;DHT22;64447;52.140;5.602;2023-04-03T15:31:31;9.00;49.80
35593;DHT22;64447;52.140;5.602;2023-04-03T15:33:57;9.00;50.40
35593;DHT22;64447;52.140;5.602;2023-04-03T15:36:22;9.10;50.20
35593;DHT22;64447;52.140;5.602;2023-04-03T15:38:48;9.00;50.40
35593;DHT22;64447;52.140;5.602;2023-04-03T15:41:14;8.90;51.10
35593;DHT22;64447;52.140;5.602;2023-04-03T15:43:39;9.00;51.90
35593;DHT22;64447;52.140;5.602;2023-04-03T15:46:05;9.00;51.40
35593;DHT22;64447;52.140;5.602;2023-04-03T15:48:31;9.40;52.70
35593;DHT22;64447;52.140;5.602;2023-04-03T15:54:18;8.90;52.30
35593;DHT22;64447;52.140;5.602;2023-04-03T15:56:44;9.00;53.00
35593;DHT22;64447;52.140;5.602;2023-04-03T15:59:10;9.00;52.30
35593;DHT22;64447;52.140;5.602;2023-04-03T16:01:37;8.90;51.50
35593;DHT22;64447;52.140;5.602;2023-04-03T16:04:05;8.90;51.50
35593;DHT22;64447;52.140;5.602;2023-04-03T16:06:30;8.80;52.00
35593;DHT22;64447;52.140;5.602;2023-04-03T16:08:58;8.80;53.20
35593;DHT22;64447;52.140;5.602;2023-04-03T16:11:25;8.70;52.50
35593;DHT22;64447;52.140;5.602;2023-04-03T16:13:51;8.80;53.90
35593;DHT22;64447;52.140;5.602;2023-04-03T16:16:17;8.80;53.20
35593;DHT22;64447;52.140;5.602;2023-04-03T16:18:42;8.70;53.70
35593;DHT22;64447;52.140;5.602;2023-04-03T16:24:30;8.90;52.70
35593;DHT22;64447;52.140;5.602;2023-04-03T16:26:57;8.70;53.00
35593;DHT22;64447;52.140;5.602;2023-04-03T16:29:23;8.70;53.70
35593;DHT22;64447;52.140;5.602;2023-04-03T16:31:49;8.80;53.70
35593;DHT22;64447;52.140;5.602;2023-04-03T16:34:14;8.70;53.90
35593;DHT22;64447;52.140;5.602;2023-04-03T16:36:41;8.70;54.00
35593;DHT22;64447;52.140;5.602;2023-04-03T16:39:07;8.70;54.20
35593;DHT22;64447;52.140;5.602;2023-04-03T16:41:35;8.90;53.90
35593;DHT22;64447;52.140;5.602;2023-04-03T16:44:00;8.60;53.90
35593;DHT22;64447;52.140;5.602;2023-04-03T16:46:26;8.60;53.90
35593;DHT22;64447;52.140;5.602;2023-04-03T16:48:52;8.60;53.50
35593;DHT22;64447;52.140;5.602;2023-04-03T16:54:39;8.60;53.80
35593;DHT22;64447;52.140;5.602;2023-04-03T16:57:05;8.60;53.60
35593;DHT22;64447;52.140;5.602;2023-04-03T16:59:30;8.70;54.30
35593;DHT22;64447;52.140;5.602;2023-04-03T17:01:56;8.40;54.60
35593;DHT22;64447;52.140;5.602;2023-04-03T17:04:22;8.50;55.70
35593;DHT22;64447;52.140;5.602;2023-04-03T17:10:10;8.30;54.60
35593;DHT22;64447;52.140;5.602;2023-04-03T17:12:36;8.30;54.60
35593;DHT22;64447;52.140;5.602;2023-04-03T17:15:02;8.20;53.90
35593;DHT22;64447;52.140;5.602;2023-04-03T17:17:28;8.20;54.40
35593;DHT22;64447;52.140;5.602;2023-04-03T17:19:54;8.20;54.60
35593;DHT22;64447;52.140;5.602;2023-04-03T17:22:20;8.40;55.70
35593;DHT22;64447;52.140;5.602;2023-04-03T17:24:46;8.00;55.10
35593;DHT22;64447;52.140;5.602;2023-04-03T17:27:12;8.00;56.20
35593;DHT22;64447;52.140;5.602;2023-04-03T17:29:37;8.20;56.20
35593;DHT22;64447;52.140;5.602;2023-04-03T17:32:03;7.90;55.90
35593;DHT22;64447;52.140;5.602;2023-04-03T17:34:29;7.80;56.60
35593;DHT22;64447;52.140;5.602;2023-04-03T17:40:16;7.80;56.60
35593;DHT22;64447;52.140;5.602;2023-04-03T17:42:43;7.90;56.50
35593;DHT22;64447;52.140;5.602;2023-04-03T17:45:08;7.90;56.30
35593;DHT22;64447;52.140;5.602;2023-04-03T17:47:34;7.80;56.70
35593;DHT22;64447;52.140;5.602;2023-04-03T17:50:00;8.60;57.70
35593;DHT22;64447;52.140;5.602;2023-04-03T17:52:28;8.50;57.70
35593;DHT22;64447;52.140;5.602;2023-04-03T17:54:56;7.80;57.80
35593;DHT22;64447;52.140;5.602;2023-04-03T17:57:21;7.70;57.90
35593;DHT22;64447;52.140;5.602;2023-04-03T17:59:47;7.80;58.20
35593;DHT22;64447;52.140;5.602;2023-04-03T18:02:13;8.40;58.70
35593;DHT22;64447;52.140;5.602;2023-04-03T18:04:38;8.10;58.00
35593;DHT22;64447;52.140;5.602;2023-04-03T18:10:26;7.80;57.90
35593;DHT22;64447;52.140;5.602;2023-04-03T18:12:52;7.80;57.80
35593;DHT22;64447;52.140;5.602;2023-04-03T18:15:18;7.70;57.80
35593;DHT22;64447;52.140;5.602;2023-04-03T18:17:44;7.90;58.60
35593;DHT22;64447;52.140;5.602;2023-04-03T18:20:11;7.60;58.20
35593;DHT22;64447;52.140;5.602;2023-04-03T18:22:39;7.60;57.80
35593;DHT22;64447;52.140;5.602;2023-04-03T18:25:06;7.70;58.20
35593;DHT22;64447;52.140;5.602;2023-04-03T18:27:31;7.80;57.80
35593;DHT22;64447;52.140;5.602;2023-04-03T18:30:04;7.70;58.50
35593;DHT22;64447;52.140;5.602;2023-04-03T18:32:31;7.70;58.10
35593;DHT22;64447;52.140;5.602;2023-04-03T18:34:56;7.60;59.20
35593;DHT22;64447;52.140;5.602;2023-04-03T18:40:45;7.60;59.00
35593;DHT22;64447;52.140;5.602;2023-04-03T18:43:12;7.50;59.30
35593;DHT22;64447;52.140;5.602;2023-04-03T18:45:38;7.90;60.30
35593;DHT22;64447;52.140;5.602;2023-04-03T18:48:04;7.50;60.00
35593;DHT22;64447;52.140;5.602;2023-04-03T18:50:30;7.50;60.00
35593;DHT22;64447;52.140;5.602;2023-04-03T18:52:56;7.40;59.60
35593;DHT22;64447;52.140;5.602;2023-04-03T18:55:22;7.40;60.30
35593;DHT22;64447;52.140;5.602;2023-04-03T18:57:48;7.60;60.40
35593;DHT22;64447;52.140;5.602;2023-04-03T19:00:16;7.80;59.50
35593;DHT22;64447;52.140;5.602;2023-04-03T19:02:42;7.80;59.10
35593;DHT22;64447;52.140;5.602;2023-04-03T19:05:10;7.90;59.10
35593;DHT22;64447;52.140;5.602;2023-04-03T19:10:58;8.10;58.50
35593;DHT22;64447;52.140;5.602;2023-04-03T19:13:24;8.30;58.40
35593;DHT22;64447;52.140;5.602;2023-04-03T19:15:52;8.40;58.60
35593;DHT22;64447;52.140;5.602;2023-04-03T19:18:23;8.40;58.30
35593;DHT22;64447;52.140;5.602;2023-04-03T19:20:49;8.20;58.40
35593;DHT22;64447;52.140;5.602;2023-04-03T19:23:15;8.40;58.30
35593;DHT22;64447;52.140;5.602;2023-04-03T19:25:40;8.40;58.30
35593;DHT22;64447;52.140;5.602;2023-04-03T19:28:06;8.40;58.20
35593;DHT22;64447;52.140;5.602;2023-04-03T19:30:31;8.40;58.90
35593;DHT22;64447;52.140;5.602;2023-04-03T19:32:57;8.40;59.30
35593;DHT22;64447;52.140;5.602;2023-04-03T19:35:23;8.30;59.50
35593;DHT22;64447;52.140;5.602;2023-04-03T19:37:50;8.40;61.10
35593;DHT22;64447;52.140;5.602;2023-04-03T19:40:17;8.30;62.20
35593;DHT22;64447;52.140;5.602;2023-04-03T19:42:43;8.40;62.40
35593;DHT22;64447;52.140;5.602;2023-04-03T19:45:10;8.40;62.60
35593;DHT22;64447;52.140;5.602;2023-04-03T19:47:37;8.30;63.20
35593;DHT22;64447;52.140;5.602;2023-04-03T19:50:03;8.20;62.90
35593;DHT22;64447;52.140;5.602;2023-04-03T19:55:51;8.10;62.70
35593;DHT22;64447;52.140;5.602;2023-04-03T19:58:16;7.90;63.60
35593;DHT22;64447;52.140;5.602;2023-04-03T20:00:42;7.90;65.30
35593;DHT22;64447;52.140;5.602;2023-04-03T20:03:08;7.90;65.90
35593;DHT22;64447;52.140;5.602;2023-04-03T20:05:33;7.70;62.20
35593;DHT22;64447;52.140;5.602;2023-04-03T20:07:59;7.70;63.80
35593;DHT22;64447;52.140;5.602;2023-04-03T20:10:24;7.70;64.00
35593;DHT22;64447;52.140;5.602;2023-04-03T20:12:50;7.70;65.40
35593;DHT22;64447;52.140;5.602;2023-04-03T20:15:17;7.80;65.80
35593;DHT22;64447;52.140;5.602;2023-04-03T20:17:43;7.80;65.40
35593;DHT22;64447;52.140;5.602;2023-04-03T20:20:09;7.80;66.50
35593;DHT22;64447;52.140;5.602;2023-04-03T20:25:58;7.70;67.00
35593;DHT22;64447;52.140;5.602;2023-04-03T20:28:26;7.70;67.80
35593;DHT22;64447;52.140;5.602;2023-04-03T20:30:52;8.00;68.30
35593;DHT22;64447;52.140;5.602;2023-04-03T20:33:21;7.60;69.10
35593;DHT22;64447;52.140;5.602;2023-04-03T20:35:47;7.60;69.40
35593;DHT22;64447;52.140;5.602;2023-04-03T20:38:14;7.50;70.10
35593;DHT22;64447;52.140;5.602;2023-04-03T20:40:40;7.50;69.60
35593;DHT22;64447;52.140;5.602;2023-04-03T20:43:06;8.10;69.40
35593;DHT22;64447;52.140;5.602;2023-04-03T20:45:32;7.40;69.10
35593;DHT22;64447;52.140;5.602;2023-04-03T20:47:59;7.50;70.00
35593;DHT22;64447;52.140;5.602;2023-04-03T20:50:28;7.40;70.50
35593;DHT22;64447;52.140;5.602;2023-04-03T20:56:16;7.30;71.50
35593;DHT22;64447;52.140;5.602;2023-04-03T20:58:42;7.20;71.90
35593;DHT22;64447;52.140;5.602;2023-04-03T21:01:20;7.20;70.80
35593;DHT22;64447;52.140;5.602;2023-04-03T21:03:47;7.20;68.90
35593;DHT22;64447;52.140;5.602;2023-04-03T21:24:24;6.90;72.40
35593;DHT22;64447;52.140;5.602;2023-04-03T21:26:51;6.60;72.30
35593;DHT22;64447;52.140;5.602;2023-04-03T21:29:16;6.60;73.70
35593;DHT22;64447;52.140;5.602;2023-04-03T21:31:53;6.60;74.60
35593;DHT22;64447;52.140;5.602;2023-04-03T21:34:21;6.40;74.60
35593;DHT22;64447;52.140;5.602;2023-04-03T21:40:09;6.40;74.80
35593;DHT22;64447;52.140;5.602;2023-04-03T21:42:35;6.40;74.50
35593;DHT22;64447;52.140;5.602;2023-04-03T21:45:01;6.30;74.00
35593;DHT22;64447;52.140;5.602;2023-04-03T21:47:27;6.70;74.00
35593;DHT22;64447;52.140;5.602;2023-04-03T21:49:53;6.90;74.60
35593;DHT22;64447;52.140;5.602;2023-04-03T21:55:41;6.20;75.60
35593;DHT22;64447;52.140;5.602;2023-04-03T21:58:07;6.80;75.20
35593;DHT22;64447;52.140;5.602;2023-04-03T22:00:32;6.10;74.80
35593;DHT22;64447;52.140;5.602;2023-04-03T22:02:58;6.10;74.50
35593;DHT22;64447;52.140;5.602;2023-04-03T22:05:24;6.10;74.60
35593;DHT22;64447;52.140;5.602;2023-04-03T22:11:12;6.00;74.60
35593;DHT22;64447;52.140;5.602;2023-04-03T22:13:39;5.90;75.10
35593;DHT22;64447;52.140;5.602;2023-04-03T22:16:06;5.90;75.50
35593;DHT22;64447;52.140;5.602;2023-04-03T22:18:32;5.90;75.90
35593;DHT22;64447;52.140;5.602;2023-04-03T22:20:58;6.90;75.60
35593;DHT22;64447;52.140;5.602;2023-04-03T22:26:46;5.80;76.80
35593;DHT22;64447;52.140;5.602;2023-04-03T22:29:12;5.80;75.80
35593;DHT22;64447;52.140;5.602;2023-04-03T22:31:38;5.60;74.00
35593;DHT22;64447;52.140;5.602;2023-04-03T22:34:05;5.50;75.20
35593;DHT22;64447;52.140;5.602;2023-04-03T22:36:31;5.50;75.10
35593;DHT22;64447;52.140;5.602;2023-04-03T22:38:57;5.50;76.80
35593;DHT22;64447;52.140;5.602;2023-04-03T22:41:23;6.50;77.90
35593;DHT22;64447;52.140;5.602;2023-04-03T22:43:49;5.60;77.80
35593;DHT22;64447;52.140;5.602;2023-04-03T22:46:15;5.60;77.40
35593;DHT22;64447;52.140;5.602;2023-04-03T22:48:41;5.60;77.20
35593;DHT22;64447;52.140;5.602;2023-04-03T22:51:07;5.60;78.00
35593;DHT22;64447;52.140;5.602;2023-04-03T22:53:33;5.60;75.80
35593;DHT22;64447;52.140;5.602;2023-04-03T22:56:01;6.90;76.10
35593;DHT22;64447;52.140;5.602;2023-04-03T22:58:27;5.60;74.60
35593;DHT22;64447;52.140;5.602;2023-04-03T23:01:04;5.50;74.70
35593;DHT22;64447;52.140;5.602;2023-04-03T23:03:31;5.50;75.30
35593;DHT22;64447;52.140;5.602;2023-04-03T23:05:57;4.50;74.90
35593;DHT22;64447;52.140;5.602;2023-04-03T23:11:44;5.40;75.20
35593;DHT22;64447;52.140;5.602;2023-04-03T23:14:10;6.10;76.70